sensor_id;sensor_type;location;lat;lon;timestamp;P1;durP1;ratioP1;P2;durP2;ratioP2
45694;SDS011;31408;45.468;9.124;2023-07-22T00:01:31;5.28;;;2.88;;
45694;SDS011;31408;45.468;9.124;2023-07-22T00:03:57;7.85;;;3.67;;
45694;SDS011;31408;45.468;9.124;2023-07-22T00:06:23;5.03;;;2.90;;
45694;SDS011;31408;45.468;9.124;2023-07-22T00:08:49;9.13;;;2.85;;
45694;SDS011;31408;45.468;9.124;2023-07-22T00:11:15;6.75;;;3.05;;
45694;SDS011;31408;45.468;9.124;2023-07-22T00:13:40;4.78;;;2.35;;
45694;SDS011;31408;45.468;9.124;2023-07-22T00:16:06;10.02;;;3.35;;
45694;SDS011;31408;45.468;9.124;2023-07-22T00:18:33;3.92;;;2.25;;
45694;SDS011;31408;45.468;9.124;2023-07-22T00:20:59;5.15;;;3.58;;
45694;SDS011;31408;45.468;9.124;2023-07-22T00:23:24;4.78;;;2.83;;
45694;SDS011;31408;45.468;9.124;2023-07-22T00:25:50;5.38;;;2.65;;
45694;SDS011;31408;45.468;9.124;2023-07-22T00:28:16;10.38;;;3.20;;
45694;SDS011;31408;45.468;9.124;2023-07-22T00:30:43;5.65;;;2.78;;
45694;SDS011;31408;45.468;9.124;2023-07-22T00:33:09;6.82;;;2.40;;
45694;SDS011;31408;45.468;9.124;2023-07-22T00:35:35;6.63;;;2.78;;
45694;SDS011;31408;45.468;9.124;2023-07-22T00:38:01;6.03;;;2.95;;
45694;SDS011;31408;45.468;9.124;2023-07-22T00:40:27;5.57;;;2.83;;
45694;SDS011;31408;45.468;9.124;2023-07-22T00:42:53;6.72;;;2.78;;
45694;SDS011;31408;45.468;9.124;2023-07-22T00:45:18;5.63;;;3.17;;
45694;SDS011;31408;45.468;9.124;2023-07-22T00:47:44;12.07;;;3.17;;
45694;SDS011;31408;45.468;9.124;2023-07-22T00:50:10;12.73;;;3.15;;
45694;SDS011;31408;45.468;9.124;2023-07-22T00:52:36;6.57;;;2.88;;
45694;SDS011;31408;45.468;9.124;2023-07-22T00:55:03;5.95;;;2.72;;
45694;SDS011;31408;45.468;9.124;2023-07-22T00:57:30;7.50;;;3.70;;
45694;SDS011;31408;45.468;9.124;2023-07-22T00:59:55;5.22;;;3.20;;
45694;SDS011;31408;45.468;9.124;2023-07-22T01:02:21;7.63;;;2.80;;
45694;SDS011;31408;45.468;9.124;2023-07-22T01:04:47;3.95;;;2.35;;
45694;SDS011;31408;45.468;9.124;2023-07-22T01:07:14;5.30;;;3.10;;
45694;SDS011;31408;45.468;9.124;2023-07-22T01:09:41;7.97;;;2.40;;
45694;SDS011;31408;45.468;9.124;2023-07-22T01:12:10;5.05;;;2.58;;
45694;SDS011;31408;45.468;9.124;2023-07-22T01:14:37;7.38;;;2.85;;
45694;SDS011;31408;45.468;9.124;2023-07-22T01:17:10;8.35;;;3.03;;
45694;SDS011;31408;45.468;9.124;2023-07-22T01:19:36;8.82;;;3.22;;
45694;SDS011;31408;45.468;9.124;2023-07-22T01:22:03;4.10;;;2.38;;
45694;SDS011;31408;45.468;9.124;2023-07-22T01:24:36;5.82;;;2.65;;
45694;SDS011;31408;45.468;9.124;2023-07-22T01:27:04;5.95;;;2.78;;
45694;SDS011;31408;45.468;9.124;2023-07-22T01:29:33;7.20;;;2.83;;
45694;SDS011;31408;45.468;9.124;2023-07-22T01:31:59;6.45;;;3.13;;
45694;SDS011;31408;45.468;9.124;2023-07-22T01:34:25;5.93;;;2.72;;
45694;SDS011;31408;45.468;9.124;2023-07-22T01:36:50;5.80;;;2.80;;
45694;SDS011;31408;45.468;9.124;2023-07-22T01:39:16;7.82;;;3.22;;
45694;SDS011;31408;45.468;9.124;2023-07-22T01:41:43;7.32;;;2.80;;
45694;SDS011;31408;45.468;9.124;2023-07-22T01:44:09;6.97;;;3.10;;
45694;SDS011;31408;45.468;9.124;2023-07-22T01:46:36;8.02;;;3.50;;
45694;SDS011;31408;45.468;9.124;2023-07-22T01:49:03;9.05;;;3.30;;
45694;SDS011;31408;45.468;9.124;2023-07-22T01:51:30;6.43;;;3.13;;
45694;SDS011;31408;45.468;9.124;2023-07-22T01:53:56;3.90;;;2.78;;
45694;SDS011;31408;45.468;9.124;2023-07-22T01:56:22;7.75;;;2.72;;
45694;SDS011;31408;45.468;9.124;2023-07-22T01:58:48;5.25;;;2.80;;
45694;SDS011;31408;45.468;9.124;2023-07-22T02:01:13;6.53;;;2.78;;
45694;SDS011;31408;45.468;9.124;2023-07-22T02:03:41;6.55;;;2.70;;
45694;SDS011;31408;45.468;9.124;2023-07-22T02:06:09;6.90;;;2.72;;
45694;SDS011;31408;45.468;9.124;2023-07-22T02:08:34;7.65;;;3.72;;
45694;SDS011;31408;45.468;9.124;2023-07-22T02:11:02;4.85;;;2.78;;
45694;SDS011;31408;45.468;9.124;2023-07-22T02:13:29;7.22;;;3.13;;
45694;SDS011;31408;45.468;9.124;2023-07-22T02:15:55;4.47;;;2.40;;
45694;SDS011;31408;45.468;9.124;2023-07-22T02:18:21;5.55;;;2.85;;
45694;SDS011;31408;45.468;9.124;2023-07-22T02:20:46;6.97;;;2.80;;
45694;SDS011;31408;45.468;9.124;2023-07-22T02:23:12;5.18;;;2.55;;
45694;SDS011;31408;45.468;9.124;2023-07-22T02:25:38;5.80;;;3.22;;
45694;SDS011;31408;45.468;9.124;2023-07-22T02:28:03;10.73;;;3.00;;
45694;SDS011;31408;45.468;9.124;2023-07-22T02:30:29;6.72;;;2.67;;
45694;SDS011;31408;45.468;9.124;2023-07-22T02:32:54;6.25;;;2.67;;
45694;SDS011;31408;45.468;9.124;2023-07-22T02:35:21;6.88;;;3.53;;
45694;SDS011;31408;45.468;9.124;2023-07-22T02:37:46;5.68;;;2.92;;
45694;SDS011;31408;45.468;9.124;2023-07-22T02:40:12;7.30;;;3.05;;
45694;SDS011;31408;45.468;9.124;2023-07-22T02:42:38;6.00;;;3.15;;
45694;SDS011;31408;45.468;9.124;2023-07-22T02:45:04;7.63;;;3.80;;
45694;SDS011;31408;45.468;9.124;2023-07-22T02:47:34;8.38;;;3.80;;
45694;SDS011;31408;45.468;9.124;2023-07-22T02:49:59;13.98;;;4.22;;
45694;SDS011;31408;45.468;9.124;2023-07-22T02:52:25;8.52;;;4.22;;
45694;SDS011;31408;45.468;9.124;2023-07-22T02:55:10;10.05;;;4.72;;
45694;SDS011;31408;45.468;9.124;2023-07-22T02:57:38;8.65;;;4.18;;
45694;SDS011;31408;45.468;9.124;2023-07-22T03:00:05;16.83;;;5.60;;
45694;SDS011;31408;45.468;9.124;2023-07-22T03:02:37;9.60;;;4.68;;
45694;SDS011;31408;45.468;9.124;2023-07-22T03:05:06;11.48;;;4.55;;
45694;SDS011;31408;45.468;9.124;2023-07-22T03:07:38;15.75;;;5.50;;
45694;SDS011;31408;45.468;9.124;2023-07-22T03:10:07;17.40;;;5.80;;
45694;SDS011;31408;45.468;9.124;2023-07-22T03:12:34;13.93;;;5.43;;
45694;SDS011;31408;45.468;9.124;2023-07-22T03:15:00;11.82;;;4.32;;
45694;SDS011;31408;45.468;9.124;2023-07-22T03:17:25;8.52;;;5.03;;
45694;SDS011;31408;45.468;9.124;2023-07-22T03:19:51;13.35;;;5.18;;
45694;SDS011;31408;45.468;9.124;2023-07-22T03:22:17;12.88;;;4.82;;
45694;SDS011;31408;45.468;9.124;2023-07-22T03:24:43;11.23;;;4.18;;
45694;SDS011;31408;45.468;9.124;2023-07-22T03:27:09;12.52;;;5.05;;
45694;SDS011;31408;45.468;9.124;2023-07-22T03:29:35;9.38;;;4.20;;
45694;SDS011;31408;45.468;9.124;2023-07-22T03:32:01;11.93;;;5.65;;
45694;SDS011;31408;45.468;9.124;2023-07-22T03:34:26;13.02;;;5.28;;
45694;SDS011;31408;45.468;9.124;2023-07-22T03:36:52;26.90;;;5.43;;
45694;SDS011;31408;45.468;9.124;2023-07-22T03:39:18;10.50;;;5.18;;
45694;SDS011;31408;45.468;9.124;2023-07-22T03:41:45;13.85;;;6.18;;
45694;SDS011;31408;45.468;9.124;2023-07-22T03:44:11;15.43;;;7.25;;
45694;SDS011;31408;45.468;9.124;2023-07-22T03:46:37;13.27;;;5.60;;
45694;SDS011;31408;45.468;9.124;2023-07-22T03:49:08;16.38;;;6.88;;
45694;SDS011;31408;45.468;9.124;2023-07-22T03:51:33;20.40;;;7.20;;
45694;SDS011;31408;45.468;9.124;2023-07-22T03:53:59;15.60;;;6.38;;
45694;SDS011;31408;45.468;9.124;2023-07-22T03:56:25;16.80;;;6.22;;
45694;SDS011;31408;45.468;9.124;2023-07-22T03:58:51;16.33;;;6.75;;
45694;SDS011;31408;45.468;9.124;2023-07-22T04:01:16;17.05;;;7.85;;
45694;SDS011;31408;45.468;9.124;2023-07-22T04:03:42;18.80;;;6.40;;
45694;SDS011;31408;45.468;9.124;2023-07-22T04:06:08;13.77;;;6.20;;
45694;SDS011;31408;45.468;9.124;2023-07-22T04:08:33;12.75;;;6.15;;
45694;SDS011;31408;45.468;9.124;2023-07-22T04:10:59;14.00;;;7.05;;
45694;SDS011;31408;45.468;9.124;2023-07-22T04:13:25;13.65;;;5.50;;
45694;SDS011;31408;45.468;9.124;2023-07-22T04:15:51;16.33;;;6.60;;
45694;SDS011;31408;45.468;9.124;2023-07-22T04:18:19;15.82;;;6.00;;
45694;SDS011;31408;45.468;9.124;2023-07-22T04:20:45;17.58;;;6.10;;
45694;SDS011;31408;45.468;9.124;2023-07-22T04:23:11;14.32;;;6.65;;
45694;SDS011;31408;45.468;9.124;2023-07-22T04:25:40;14.73;;;6.28;;
45694;SDS011;31408;45.468;9.124;2023-07-22T04:28:06;12.38;;;5.70;;
45694;SDS011;31408;45.468;9.124;2023-07-22T04:30:33;9.48;;;3.97;;
45694;SDS011;31408;45.468;9.124;2023-07-22T04:32:59;12.05;;;4.72;;
45694;SDS011;31408;45.468;9.124;2023-07-22T04:35:24;5.63;;;3.15;;
45694;SDS011;31408;45.468;9.124;2023-07-22T04:40:35;6.60;;;3.42;;
45694;SDS011;31408;45.468;9.124;2023-07-22T04:43:01;8.30;;;3.45;;
45694;SDS011;31408;45.468;9.124;2023-07-22T04:45:27;7.43;;;4.03;;
45694;SDS011;31408;45.468;9.124;2023-07-22T04:47:53;9.43;;;4.28;;
45694;SDS011;31408;45.468;9.124;2023-07-22T04:50:19;9.63;;;3.85;;
45694;SDS011;31408;45.468;9.124;2023-07-22T04:52:45;5.45;;;3.58;;
45694;SDS011;31408;45.468;9.124;2023-07-22T04:55:11;7.72;;;3.72;;
45694;SDS011;31408;45.468;9.124;2023-07-22T04:57:41;6.35;;;3.00;;
45694;SDS011;31408;45.468;9.124;2023-07-22T05:00:10;7.53;;;3.85;;
45694;SDS011;31408;45.468;9.124;2023-07-22T05:02:44;6.63;;;3.33;;
45694;SDS011;31408;45.468;9.124;2023-07-22T05:05:11;9.35;;;3.70;;
45694;SDS011;31408;45.468;9.124;2023-07-22T05:07:46;7.70;;;3.78;;
45694;SDS011;31408;45.468;9.124;2023-07-22T05:10:14;8.43;;;4.03;;
45694;SDS011;31408;45.468;9.124;2023-07-22T05:12:41;9.00;;;3.92;;
45694;SDS011;31408;45.468;9.124;2023-07-22T05:15:07;11.10;;;4.05;;
45694;SDS011;31408;45.468;9.124;2023-07-22T05:17:34;10.52;;;4.82;;
45694;SDS011;31408;45.468;9.124;2023-07-22T05:20:00;11.70;;;4.55;;
45694;SDS011;31408;45.468;9.124;2023-07-22T05:22:25;11.52;;;4.82;;
45694;SDS011;31408;45.468;9.124;2023-07-22T05:24:51;12.10;;;5.38;;
45694;SDS011;31408;45.468;9.124;2023-07-22T05:27:17;8.10;;;3.92;;
45694;SDS011;31408;45.468;9.124;2023-07-22T05:29:43;8.88;;;4.32;;
45694;SDS011;31408;45.468;9.124;2023-07-22T05:32:08;10.82;;;4.63;;
45694;SDS011;31408;45.468;9.124;2023-07-22T05:34:34;7.15;;;4.05;;
45694;SDS011;31408;45.468;9.124;2023-07-22T05:37:00;10.52;;;4.80;;
45694;SDS011;31408;45.468;9.124;2023-07-22T05:39:25;15.13;;;4.88;;
45694;SDS011;31408;45.468;9.124;2023-07-22T05:41:51;11.00;;;5.47;;
45694;SDS011;31408;45.468;9.124;2023-07-22T05:44:16;14.32;;;5.97;;
45694;SDS011;31408;45.468;9.124;2023-07-22T05:46:42;10.55;;;4.75;;
45694;SDS011;31408;45.468;9.124;2023-07-22T05:49:08;9.55;;;4.60;;
45694;SDS011;31408;45.468;9.124;2023-07-22T05:51:34;13.45;;;5.68;;
45694;SDS011;31408;45.468;9.124;2023-07-22T05:54:00;14.68;;;6.63;;
45694;SDS011;31408;45.468;9.124;2023-07-22T05:56:26;9.80;;;4.82;;
45694;SDS011;31408;45.468;9.124;2023-07-22T05:58:51;10.20;;;5.03;;
45694;SDS011;31408;45.468;9.124;2023-07-22T06:01:17;16.00;;;5.63;;
45694;SDS011;31408;45.468;9.124;2023-07-22T06:03:42;13.15;;;5.28;;
45694;SDS011;31408;45.468;9.124;2023-07-22T06:06:09;15.80;;;6.43;;
45694;SDS011;31408;45.468;9.124;2023-07-22T06:08:35;10.40;;;5.70;;
45694;SDS011;31408;45.468;9.124;2023-07-22T06:11:00;11.35;;;5.20;;
45694;SDS011;31408;45.468;9.124;2023-07-22T06:13:26;13.65;;;5.57;;
45694;SDS011;31408;45.468;9.124;2023-07-22T06:15:52;15.13;;;5.43;;
45694;SDS011;31408;45.468;9.124;2023-07-22T06:18:22;12.18;;;4.75;;
45694;SDS011;31408;45.468;9.124;2023-07-22T06:20:48;14.38;;;5.43;;
45694;SDS011;31408;45.468;9.124;2023-07-22T06:23:14;9.60;;;4.63;;
45694;SDS011;31408;45.468;9.124;2023-07-22T06:25:40;8.73;;;4.18;;
45694;SDS011;31408;45.468;9.124;2023-07-22T06:28:06;11.35;;;5.50;;
45694;SDS011;31408;45.468;9.124;2023-07-22T06:30:31;14.43;;;5.50;;
45694;SDS011;31408;45.468;9.124;2023-07-22T06:32:57;11.27;;;5.35;;
45694;SDS011;31408;45.468;9.124;2023-07-22T06:35:22;14.20;;;5.57;;
45694;SDS011;31408;45.468;9.124;2023-07-22T06:37:53;12.10;;;5.70;;
45694;SDS011;31408;45.468;9.124;2023-07-22T06:40:19;9.18;;;4.85;;
45694;SDS011;31408;45.468;9.124;2023-07-22T06:42:44;13.85;;;6.15;;
45694;SDS011;31408;45.468;9.124;2023-07-22T06:45:10;12.15;;;5.47;;
45694;SDS011;31408;45.468;9.124;2023-07-22T06:47:38;12.18;;;5.90;;
45694;SDS011;31408;45.468;9.124;2023-07-22T06:50:04;14.65;;;5.57;;
45694;SDS011;31408;45.468;9.124;2023-07-22T06:52:30;15.70;;;5.50;;
45694;SDS011;31408;45.468;9.124;2023-07-22T06:54:56;11.77;;;4.43;;
45694;SDS011;31408;45.468;9.124;2023-07-22T06:57:22;10.13;;;4.30;;
45694;SDS011;31408;45.468;9.124;2023-07-22T06:59:47;14.15;;;5.38;;
45694;SDS011;31408;45.468;9.124;2023-07-22T07:02:16;15.43;;;5.03;;
45694;SDS011;31408;45.468;9.124;2023-07-22T07:04:41;8.30;;;3.85;;
45694;SDS011;31408;45.468;9.124;2023-07-22T07:07:09;9.52;;;4.45;;
45694;SDS011;31408;45.468;9.124;2023-07-22T07:09:38;9.07;;;4.20;;
45694;SDS011;31408;45.468;9.124;2023-07-22T07:12:09;9.85;;;4.65;;
45694;SDS011;31408;45.468;9.124;2023-07-22T07:14:35;11.20;;;4.63;;
45694;SDS011;31408;45.468;9.124;2023-07-22T07:17:02;8.27;;;3.53;;
45694;SDS011;31408;45.468;9.124;2023-07-22T07:19:28;6.97;;;3.42;;
45694;SDS011;31408;45.468;9.124;2023-07-22T07:21:54;9.52;;;4.22;;
45694;SDS011;31408;45.468;9.124;2023-07-22T07:24:20;9.38;;;4.30;;
45694;SDS011;31408;45.468;9.124;2023-07-22T07:26:46;7.97;;;4.45;;
45694;SDS011;31408;45.468;9.124;2023-07-22T07:29:12;8.88;;;4.25;;
45694;SDS011;31408;45.468;9.124;2023-07-22T07:31:40;10.10;;;3.88;;
45694;SDS011;31408;45.468;9.124;2023-07-22T07:34:06;10.25;;;4.00;;
45694;SDS011;31408;45.468;9.124;2023-07-22T07:40:31;9.57;;;3.85;;
45694;SDS011;31408;45.468;9.124;2023-07-22T07:43:03;11.23;;;3.55;;
45694;SDS011;31408;45.468;9.124;2023-07-22T07:45:29;9.20;;;4.20;;
45694;SDS011;31408;45.468;9.124;2023-07-22T07:47:54;7.13;;;3.17;;
45694;SDS011;31408;45.468;9.124;2023-07-22T07:50:21;7.40;;;3.63;;
45694;SDS011;31408;45.468;9.124;2023-07-22T07:52:51;10.98;;;4.15;;
45694;SDS011;31408;45.468;9.124;2023-07-22T07:55:19;7.70;;;4.10;;
45694;SDS011;31408;45.468;9.124;2023-07-22T07:57:45;9.68;;;3.58;;
45694;SDS011;31408;45.468;9.124;2023-07-22T08:00:11;8.95;;;3.45;;
45694;SDS011;31408;45.468;9.124;2023-07-22T08:02:37;9.63;;;4.68;;
45694;SDS011;31408;45.468;9.124;2023-07-22T08:05:02;7.97;;;3.60;;
45694;SDS011;31408;45.468;9.124;2023-07-22T08:07:28;9.75;;;4.82;;
45694;SDS011;31408;45.468;9.124;2023-07-22T08:09:56;9.82;;;4.25;;
45694;SDS011;31408;45.468;9.124;2023-07-22T08:12:32;9.20;;;4.38;;
45694;SDS011;31408;45.468;9.124;2023-07-22T08:15:16;10.95;;;5.13;;
45694;SDS011;31408;45.468;9.124;2023-07-22T08:17:42;11.40;;;4.75;;
45694;SDS011;31408;45.468;9.124;2023-07-22T08:20:08;14.40;;;5.68;;
45694;SDS011;31408;45.468;9.124;2023-07-22T08:28:56;7.95;;;3.88;;
45694;SDS011;31408;45.468;9.124;2023-07-22T08:31:21;10.35;;;3.42;;
45694;SDS011;31408;45.468;9.124;2023-07-22T08:33:47;10.90;;;4.55;;
45694;SDS011;31408;45.468;9.124;2023-07-22T08:36:12;7.20;;;3.70;;
45694;SDS011;31408;45.468;9.124;2023-07-22T08:38:38;13.10;;;4.35;;
45694;SDS011;31408;45.468;9.124;2023-07-22T08:41:03;8.15;;;3.70;;
45694;SDS011;31408;45.468;9.124;2023-07-22T08:43:29;14.43;;;4.38;;
45694;SDS011;31408;45.468;9.124;2023-07-22T08:45:55;14.00;;;4.78;;
45694;SDS011;31408;45.468;9.124;2023-07-22T08:48:25;14.90;;;5.20;;
45694;SDS011;31408;45.468;9.124;2023-07-22T08:50:52;10.73;;;4.80;;
45694;SDS011;31408;45.468;9.124;2023-07-22T08:53:20;10.20;;;4.22;;
45694;SDS011;31408;45.468;9.124;2023-07-22T08:55:46;7.38;;;3.70;;
45694;SDS011;31408;45.468;9.124;2023-07-22T08:58:15;13.40;;;5.05;;
45694;SDS011;31408;45.468;9.124;2023-07-22T09:00:41;9.52;;;3.97;;
45694;SDS011;31408;45.468;9.124;2023-07-22T09:03:07;10.55;;;4.28;;
45694;SDS011;31408;45.468;9.124;2023-07-22T09:05:33;9.95;;;4.32;;
45694;SDS011;31408;45.468;9.124;2023-07-22T09:08:03;14.30;;;4.90;;
45694;SDS011;31408;45.468;9.124;2023-07-22T09:10:30;7.13;;;3.85;;
45694;SDS011;31408;45.468;9.124;2023-07-22T09:12:56;11.77;;;4.15;;
45694;SDS011;31408;45.468;9.124;2023-07-22T09:15:22;9.15;;;4.00;;
45694;SDS011;31408;45.468;9.124;2023-07-22T09:17:48;11.10;;;4.57;;
45694;SDS011;31408;45.468;9.124;2023-07-22T09:20:17;10.32;;;4.53;;
45694;SDS011;31408;45.468;9.124;2023-07-22T09:22:43;8.32;;;3.83;;
45694;SDS011;31408;45.468;9.124;2023-07-22T09:25:13;10.30;;;3.60;;
45694;SDS011;31408;45.468;9.124;2023-07-22T09:27:49;9.63;;;3.50;;
45694;SDS011;31408;45.468;9.124;2023-07-22T09:30:29;7.20;;;3.60;;
45694;SDS011;31408;45.468;9.124;2023-07-22T09:32:58;11.25;;;3.28;;
45694;SDS011;31408;45.468;9.124;2023-07-22T09:35:26;7.40;;;3.63;;
45694;SDS011;31408;45.468;9.124;2023-07-22T09:37:59;7.70;;;3.95;;
45694;SDS011;31408;45.468;9.124;2023-07-22T09:40:27;11.85;;;3.50;;
45694;SDS011;31408;45.468;9.124;2023-07-22T09:42:54;6.38;;;3.38;;
45694;SDS011;31408;45.468;9.124;2023-07-22T09:45:24;10.73;;;3.92;;
45694;SDS011;31408;45.468;9.124;2023-07-22T09:47:50;7.15;;;3.65;;
45694;SDS011;31408;45.468;9.124;2023-07-22T09:50:18;7.55;;;3.35;;
45694;SDS011;31408;45.468;9.124;2023-07-22T09:52:49;11.07;;;3.90;;
45694;SDS011;31408;45.468;9.124;2023-07-22T09:55:16;4.03;;;2.67;;
45694;SDS011;31408;45.468;9.124;2023-07-22T09:57:56;8.32;;;3.45;;
45694;SDS011;31408;45.468;9.124;2023-07-22T10:02:58;4.35;;;2.67;;
45694;SDS011;31408;45.468;9.124;2023-07-22T10:05:25;4.68;;;2.90;;
45694;SDS011;31408;45.468;9.124;2023-07-22T10:07:56;4.00;;;2.58;;
45694;SDS011;31408;45.468;9.124;2023-07-22T10:10:24;7.47;;;3.03;;
45694;SDS011;31408;45.468;9.124;2023-07-22T10:12:50;5.22;;;2.22;;
45694;SDS011;31408;45.468;9.124;2023-07-22T10:15:16;6.53;;;3.00;;
45694;SDS011;31408;45.468;9.124;2023-07-22T10:17:45;6.82;;;3.08;;
45694;SDS011;31408;45.468;9.124;2023-07-22T10:20:11;11.75;;;3.67;;
45694;SDS011;31408;45.468;9.124;2023-07-22T10:22:41;5.47;;;2.15;;
45694;SDS011;31408;45.468;9.124;2023-07-22T10:25:08;4.97;;;2.80;;
45694;SDS011;31408;45.468;9.124;2023-07-22T10:27:36;6.93;;;2.42;;
45694;SDS011;31408;45.468;9.124;2023-07-22T10:30:04;5.70;;;2.92;;
45694;SDS011;31408;45.468;9.124;2023-07-22T10:32:38;6.70;;;3.00;;
45694;SDS011;31408;45.468;9.124;2023-07-22T10:35:04;5.10;;;2.53;;
45694;SDS011;31408;45.468;9.124;2023-07-22T10:37:35;5.72;;;3.10;;
45694;SDS011;31408;45.468;9.124;2023-07-22T10:40:15;8.90;;;3.47;;
45694;SDS011;31408;45.468;9.124;2023-07-22T10:42:42;5.15;;;2.88;;
45694;SDS011;31408;45.468;9.124;2023-07-22T10:45:23;5.22;;;2.60;;
45694;SDS011;31408;45.468;9.124;2023-07-22T10:48:05;6.80;;;2.95;;
45694;SDS011;31408;45.468;9.124;2023-07-22T10:50:40;6.75;;;2.55;;
45694;SDS011;31408;45.468;9.124;2023-07-22T10:56:19;5.50;;;3.05;;
45694;SDS011;31408;45.468;9.124;2023-07-22T10:59:00;4.88;;;2.53;;
45694;SDS011;31408;45.468;9.124;2023-07-22T11:05:16;3.78;;;2.38;;
45694;SDS011;31408;45.468;9.124;2023-07-22T11:10:52;6.78;;;3.15;;
45694;SDS011;31408;45.468;9.124;2023-07-22T11:20:21;4.13;;;2.65;;
45694;SDS011;31408;45.468;9.124;2023-07-22T11:23:00;7.40;;;2.90;;
45694;SDS011;31408;45.468;9.124;2023-07-22T11:26:03;4.20;;;2.17;;
45694;SDS011;31408;45.468;9.124;2023-07-22T11:28:29;6.88;;;2.55;;
45694;SDS011;31408;45.468;9.124;2023-07-22T11:31:08;6.22;;;3.28;;
45694;SDS011;31408;45.468;9.124;2023-07-22T11:33:40;3.67;;;2.30;;
45694;SDS011;31408;45.468;9.124;2023-07-22T11:36:20;5.43;;;2.33;;
45694;SDS011;31408;45.468;9.124;2023-07-22T11:43:02;5.25;;;2.30;;
45694;SDS011;31408;45.468;9.124;2023-07-22T11:45:28;6.22;;;3.92;;
45694;SDS011;31408;45.468;9.124;2023-07-22T11:47:54;5.07;;;2.53;;
45694;SDS011;31408;45.468;9.124;2023-07-22T11:50:32;7.32;;;2.65;;
45694;SDS011;31408;45.468;9.124;2023-07-22T11:52:58;5.47;;;2.60;;
45694;SDS011;31408;45.468;9.124;2023-07-22T11:55:24;4.10;;;2.47;;
45694;SDS011;31408;45.468;9.124;2023-07-22T11:57:52;4.63;;;2.40;;
45694;SDS011;31408;45.468;9.124;2023-07-22T12:00:18;5.40;;;2.58;;
45694;SDS011;31408;45.468;9.124;2023-07-22T12:02:44;6.82;;;2.85;;
45694;SDS011;31408;45.468;9.124;2023-07-22T12:05:09;4.25;;;2.40;;
45694;SDS011;31408;45.468;9.124;2023-07-22T12:07:40;9.43;;;2.65;;
45694;SDS011;31408;45.468;9.124;2023-07-22T12:10:07;7.18;;;2.28;;
45694;SDS011;31408;45.468;9.124;2023-07-22T12:15:11;5.95;;;2.53;;
45694;SDS011;31408;45.468;9.124;2023-07-22T12:17:51;5.80;;;2.58;;
45694;SDS011;31408;45.468;9.124;2023-07-22T12:20:18;5.38;;;2.88;;
45694;SDS011;31408;45.468;9.124;2023-07-22T12:22:44;4.95;;;2.55;;
45694;SDS011;31408;45.468;9.124;2023-07-22T12:25:10;7.82;;;2.97;;
45694;SDS011;31408;45.468;9.124;2023-07-22T12:27:36;4.35;;;2.92;;
45694;SDS011;31408;45.468;9.124;2023-07-22T12:30:02;5.85;;;3.10;;
45694;SDS011;31408;45.468;9.124;2023-07-22T12:32:28;7.78;;;2.50;;
45694;SDS011;31408;45.468;9.124;2023-07-22T12:34:53;6.20;;;2.72;;
45694;SDS011;31408;45.468;9.124;2023-07-22T12:37:19;3.40;;;2.00;;
45694;SDS011;31408;45.468;9.124;2023-07-22T12:39:44;6.68;;;2.58;;
45694;SDS011;31408;45.468;9.124;2023-07-22T12:42:10;5.38;;;2.22;;
45694;SDS011;31408;45.468;9.124;2023-07-22T12:44:35;6.95;;;2.88;;
45694;SDS011;31408;45.468;9.124;2023-07-22T12:47:01;3.95;;;2.55;;
45694;SDS011;31408;45.468;9.124;2023-07-22T12:49:27;4.25;;;2.70;;
45694;SDS011;31408;45.468;9.124;2023-07-22T12:51:52;5.07;;;2.38;;
45694;SDS011;31408;45.468;9.124;2023-07-22T12:54:18;3.92;;;2.58;;
45694;SDS011;31408;45.468;9.124;2023-07-22T12:56:43;6.72;;;3.05;;
45694;SDS011;31408;45.468;9.124;2023-07-22T12:59:09;6.35;;;3.08;;
45694;SDS011;31408;45.468;9.124;2023-07-22T13:01:35;3.85;;;2.83;;
45694;SDS011;31408;45.468;9.124;2023-07-22T13:04:04;6.90;;;2.55;;
45694;SDS011;31408;45.468;9.124;2023-07-22T13:06:32;6.63;;;2.53;;
45694;SDS011;31408;45.468;9.124;2023-07-22T13:08:58;7.57;;;4.55;;
45694;SDS011;31408;45.468;9.124;2023-07-22T13:11:23;5.38;;;2.85;;
45694;SDS011;31408;45.468;9.124;2023-07-22T13:13:49;5.97;;;2.95;;
45694;SDS011;31408;45.468;9.124;2023-07-22T13:16:14;7.53;;;3.03;;
45694;SDS011;31408;45.468;9.124;2023-07-22T13:18:42;5.82;;;2.55;;
45694;SDS011;31408;45.468;9.124;2023-07-22T13:21:08;4.93;;;2.75;;
45694;SDS011;31408;45.468;9.124;2023-07-22T13:23:33;5.57;;;2.70;;
45694;SDS011;31408;45.468;9.124;2023-07-22T13:25:59;10.13;;;3.50;;
45694;SDS011;31408;45.468;9.124;2023-07-22T13:28:24;6.07;;;2.75;;
45694;SDS011;31408;45.468;9.124;2023-07-22T13:30:50;4.82;;;2.83;;
45694;SDS011;31408;45.468;9.124;2023-07-22T13:33:15;3.92;;;2.90;;
45694;SDS011;31408;45.468;9.124;2023-07-22T13:35:40;9.15;;;2.92;;
45694;SDS011;31408;45.468;9.124;2023-07-22T13:38:11;6.82;;;3.13;;
45694;SDS011;31408;45.468;9.124;2023-07-22T13:40:36;5.25;;;3.40;;
45694;SDS011;31408;45.468;9.124;2023-07-22T13:43:02;8.20;;;3.03;;
45694;SDS011;31408;45.468;9.124;2023-07-22T13:45:27;6.57;;;2.75;;
45694;SDS011;31408;45.468;9.124;2023-07-22T13:47:53;7.03;;;2.53;;
45694;SDS011;31408;45.468;9.124;2023-07-22T13:50:18;7.03;;;3.15;;
45694;SDS011;31408;45.468;9.124;2023-07-22T13:52:44;5.00;;;2.60;;
45694;SDS011;31408;45.468;9.124;2023-07-22T13:55:09;8.00;;;3.20;;
45694;SDS011;31408;45.468;9.124;2023-07-22T13:57:35;8.45;;;3.13;;
45694;SDS011;31408;45.468;9.124;2023-07-22T14:00:01;8.52;;;3.40;;
45694;SDS011;31408;45.468;9.124;2023-07-22T14:02:37;7.20;;;3.15;;
45694;SDS011;31408;45.468;9.124;2023-07-22T14:05:03;6.05;;;3.25;;
45694;SDS011;31408;45.468;9.124;2023-07-22T14:07:29;5.82;;;3.00;;
45694;SDS011;31408;45.468;9.124;2023-07-22T14:09:54;5.80;;;3.33;;
45694;SDS011;31408;45.468;9.124;2023-07-22T14:12:20;7.22;;;3.20;;
45694;SDS011;31408;45.468;9.124;2023-07-22T14:14:45;4.93;;;3.05;;
45694;SDS011;31408;45.468;9.124;2023-07-22T14:17:11;6.05;;;3.17;;
45694;SDS011;31408;45.468;9.124;2023-07-22T14:19:37;7.22;;;3.38;;
45694;SDS011;31408;45.468;9.124;2023-07-22T14:22:02;7.32;;;3.28;;
45694;SDS011;31408;45.468;9.124;2023-07-22T14:24:28;8.88;;;3.42;;
45694;SDS011;31408;45.468;9.124;2023-07-22T14:26:54;10.00;;;3.03;;
45694;SDS011;31408;45.468;9.124;2023-07-22T14:29:20;5.75;;;2.95;;
45694;SDS011;31408;45.468;9.124;2023-07-22T14:31:46;4.95;;;2.80;;
45694;SDS011;31408;45.468;9.124;2023-07-22T14:34:11;11.20;;;3.35;;
45694;SDS011;31408;45.468;9.124;2023-07-22T14:36:37;9.63;;;3.10;;
45694;SDS011;31408;45.468;9.124;2023-07-22T14:39:02;11.30;;;3.25;;
45694;SDS011;31408;45.468;9.124;2023-07-22T14:41:29;7.72;;;3.28;;
45694;SDS011;31408;45.468;9.124;2023-07-22T14:43:55;11.07;;;4.32;;
45694;SDS011;31408;45.468;9.124;2023-07-22T14:46:20;7.32;;;3.35;;
45694;SDS011;31408;45.468;9.124;2023-07-22T14:48:46;8.88;;;4.13;;
45694;SDS011;31408;45.468;9.124;2023-07-22T14:51:11;5.15;;;2.47;;
45694;SDS011;31408;45.468;9.124;2023-07-22T14:53:37;8.00;;;2.85;;
45694;SDS011;31408;45.468;9.124;2023-07-22T14:56:02;8.32;;;3.00;;
45694;SDS011;31408;45.468;9.124;2023-07-22T14:58:28;7.45;;;3.40;;
45694;SDS011;31408;45.468;9.124;2023-07-22T15:00:53;4.60;;;2.85;;
45694;SDS011;31408;45.468;9.124;2023-07-22T15:03:19;9.23;;;3.17;;
45694;SDS011;31408;45.468;9.124;2023-07-22T15:05:45;5.07;;;2.63;;
45694;SDS011;31408;45.468;9.124;2023-07-22T15:08:10;4.57;;;2.95;;
45694;SDS011;31408;45.468;9.124;2023-07-22T15:10:35;6.07;;;3.08;;
45694;SDS011;31408;45.468;9.124;2023-07-22T15:13:01;8.27;;;3.35;;
45694;SDS011;31408;45.468;9.124;2023-07-22T15:15:28;6.97;;;3.10;;
45694;SDS011;31408;45.468;9.124;2023-07-22T15:17:53;9.65;;;2.92;;
45694;SDS011;31408;45.468;9.124;2023-07-22T15:20:18;6.35;;;3.40;;
45694;SDS011;31408;45.468;9.124;2023-07-22T15:22:44;7.63;;;3.70;;